Baskc, Croatia
Current Conditions -  °F | °C
As of 2:30 PM on Saturday 25 Oct 2014 (Local Time) from LDRI Reporting Station
Few Clouds Few Clouds  
Wind Chill: 59°   Ceiling: Unl
Heat Index: 59°   Visibility: 6mi
Dew Point: 41°   Wind: 9mph
Humidity: 51%   Direction: 90°E
Pressure: 30.12"   Gusts: NA
Location:  44.98°N, 14.75°E
Report Text: LDRI 251330Z 090008KT 050V170 9999 FEW050 15/05 Q1020
Loading
Personal Weather Stations






























Interactive Weather Map
Tropical Storm Tracking
New forecast layout! Learn more

10-Day Weather Forecast

Advertisements
Track Severe Weather on mobile